Time;durP1;ratioP1;P1;durP2;ratioP2;P2;SDS_P1;SDS_P2;PMS_P1;PMS_P2;Temp;Humidity;BMP_temperature;BMP_pressure;BME280_temperature;BME280_humidity;BME280_pressure;Samples;Min_cycle;Max_cycle;Signal;HPM_P1;HPM_P2
2023/11/23 00:00:23;;;;;;;5.28;3.55;;;0.90;99.90;;;;;;2086657;28;20754;-67
2023/11/23 00:01:24;;;;;;;4.63;3.83;;;0.90;99.90;;;;;;2079678;28;20314;-68
2023/11/23 00:02:25;;;;;;;5.25;3.83;;;0.90;99.90;;;;;;2079268;28;20240;-68
2023/11/23 00:03:26;;;;;;;4.57;3.37;;;1.00;99.90;;;;;;2079801;28;20224;-67
2023/11/23 00:04:26;;;;;;;5.13;3.77;;;0.90;99.90;;;;;;2088510;28;20277;-67
2023/11/23 00:05:28;;;;;;;4.70;3.50;;;0.90;99.90;;;;;;2085197;28;20234;-67
2023/11/23 00:06:29;;;;;;;4.57;3.50;;;1.00;99.90;;;;;;2081007;28;20221;-67
2023/11/23 00:07:31;;;;;;;3.97;3.23;;;1.10;99.90;;;;;;2083553;28;20921;-67
2023/11/23 00:08:34;;;;;;;5.40;3.72;;;1.20;99.90;;;;;;2081883;28;20220;-67
2023/11/23 00:09:34;;;;;;;4.60;3.42;;;1.20;99.90;;;;;;2088244;28;20278;-67
2023/11/23 00:10:35;;;;;;;5.07;3.63;;;1.10;99.90;;;;;;2085416;28;20786;-67
2023/11/23 00:11:36;;;;;;;3.93;3.17;;;1.10;99.90;;;;;;2080719;28;20227;-67
2023/11/23 00:12:36;;;;;;;4.03;3.20;;;1.10;99.90;;;;;;2080833;28;20234;-67
2023/11/23 00:13:38;;;;;;;4.57;3.33;;;1.10;99.90;;;;;;2086179;28;20228;-67
2023/11/23 00:14:38;;;;;;;4.75;3.38;;;1.10;99.90;;;;;;2085650;28;20695;-67
2023/11/23 00:15:39;;;;;;;4.40;3.20;;;1.20;99.90;;;;;;2093328;28;20226;-67
2023/11/23 00:16:43;;;;;;;5.67;3.47;;;1.20;99.90;;;;;;2094596;28;20695;-67
2023/11/23 00:17:43;;;;;;;3.35;2.38;;;1.30;99.90;;;;;;2089284;28;20226;-67
2023/11/23 00:18:44;;;;;;;4.57;3.30;;;1.20;99.90;;;;;;2079260;28;20299;-67
2023/11/23 00:19:46;;;;;;;4.30;3.10;;;1.20;99.90;;;;;;2080951;28;20233;-67
2023/11/23 00:20:47;;;;;;;4.40;3.10;;;1.20;99.90;;;;;;2087758;28;20655;-67
2023/11/23 00:21:48;;;;;;;4.50;3.30;;;1.30;99.90;;;;;;2096339;28;20321;-67
2023/11/23 00:22:48;;;;;;;5.33;4.17;;;1.20;99.90;;;;;;2084256;28;20964;-67
2023/11/23 00:23:49;;;;;;;4.80;3.30;;;1.20;99.90;;;;;;2082048;28;20253;-67
2023/11/23 00:24:50;;;;;;;5.37;3.97;;;1.20;99.90;;;;;;2082074;28;20312;-67
2023/11/23 00:25:50;;;;;;;4.50;3.30;;;1.10;99.90;;;;;;2080708;28;20634;-67
2023/11/23 00:26:53;;;;;;;5.00;3.67;;;1.00;99.90;;;;;;2085781;28;20322;-67
2023/11/23 00:27:54;;;;;;;4.13;3.38;;;0.90;99.90;;;;;;2091503;28;20251;-67
2023/11/23 00:28:55;;;;;;;4.30;3.17;;;0.90;99.90;;;;;;2084305;28;20191;-67
2023/11/23 00:29:56;;;;;;;4.60;3.93;;;0.90;99.90;;;;;;2087034;28;20198;-67
2023/11/23 00:30:58;;;;;;;3.80;3.13;;;0.90;99.90;;;;;;2078851;28;20201;-67
2023/11/23 00:31:58;;;;;;;4.65;3.53;;;0.90;99.90;;;;;;2088087;28;20185;-67
2023/11/23 00:32:59;;;;;;;5.70;3.87;;;0.80;99.90;;;;;;2085754;28;20190;-67
2023/11/23 00:34:00;;;;;;;4.90;3.40;;;0.80;99.90;;;;;;2080094;28;20304;-67
2023/11/23 00:35:01;;;;;;;3.53;2.83;;;0.90;99.90;;;;;;2084168;28;20273;-67
2023/11/23 00:36:03;;;;;;;4.43;3.30;;;0.80;99.90;;;;;;2084795;28;20234;-67
2023/11/23 00:37:07;;;;;;;4.65;3.35;;;0.80;99.90;;;;;;2084267;28;20185;-67
2023/11/23 00:38:10;;;;;;;5.28;3.63;;;0.70;99.90;;;;;;2083360;28;20192;-67
2023/11/23 00:39:12;;;;;;;4.20;3.22;;;0.70;99.90;;;;;;2078794;28;20199;-67
2023/11/23 00:40:12;;;;;;;2.72;2.45;;;0.70;99.90;;;;;;2094271;28;20240;-67
2023/11/23 00:41:13;;;;;;;4.00;3.27;;;0.60;99.90;;;;;;2081752;28;20227;-67
2023/11/23 00:42:14;;;;;;;4.83;3.73;;;0.70;99.90;;;;;;2079755;28;20238;-67
2023/11/23 00:43:14;;;;;;;3.93;2.67;;;0.80;99.90;;;;;;2084804;28;20394;-67
2023/11/23 00:44:16;;;;;;;3.43;2.70;;;0.80;99.90;;;;;;2084545;28;20681;-67
2023/11/23 00:45:17;;;;;;;3.28;2.90;;;0.90;99.90;;;;;;2089465;28;20226;-67
2023/11/23 00:46:18;;;;;;;5.37;3.27;;;0.80;99.90;;;;;;2091418;28;20606;-68
2023/11/23 00:47:19;;;;;;;4.13;3.27;;;0.80;99.90;;;;;;2084356;28;20239;-67
2023/11/23 00:48:20;;;;;;;3.75;2.85;;;0.80;99.90;;;;;;2082386;28;20307;-68
2023/11/23 00:49:21;;;;;;;4.93;3.30;;;0.90;99.90;;;;;;2093584;28;20247;-68
2023/11/23 00:50:22;;;;;;;3.58;3.10;;;0.90;99.90;;;;;;2092227;28;20236;-68
2023/11/23 00:51:23;;;;;;;4.23;3.27;;;0.90;99.90;;;;;;2076413;28;20794;-67
2023/11/23 00:52:24;;;;;;;5.07;3.63;;;0.90;99.90;;;;;;2079897;28;20222;-67
2023/11/23 00:53:24;;;;;;;4.37;3.37;;;0.90;99.90;;;;;;2100152;28;20514;-67
2023/11/23 00:54:27;;;;;;;4.40;3.30;;;1.00;99.90;;;;;;2095392;28;20248;-67
2023/11/23 00:55:29;;;;;;;4.25;3.40;;;1.00;99.90;;;;;;2092566;28;20659;-67
2023/11/23 00:56:30;;;;;;;4.28;3.38;;;1.00;99.90;;;;;;2088264;28;20309;-67
2023/11/23 00:57:32;;;;;;;3.80;2.93;;;1.00;99.90;;;;;;2096292;28;20218;-67
2023/11/23 00:58:32;;;;;;;3.85;3.17;;;0.90;99.90;;;;;;2095993;28;20257;-67
2023/11/23 00:59:34;;;;;;;3.90;3.10;;;0.90;99.90;;;;;;2092414;28;20748;-67
2023/11/23 01:00:34;;;;;;;3.55;2.80;;;0.80;99.90;;;;;;2088454;28;20223;-67
2023/11/23 01:01:35;;;;;;;3.90;2.97;;;0.80;99.90;;;;;;2075426;28;20240;-67
2023/11/23 01:02:36;;;;;;;4.00;2.90;;;0.80;99.90;;;;;;2087877;28;20249;-67
2023/11/23 01:03:38;;;;;;;3.08;2.78;;;0.90;99.90;;;;;;2096301;28;20282;-67
2023/11/23 01:04:39;;;;;;;3.40;2.78;;;0.80;99.90;;;;;;2096054;28;20234;-67
2023/11/23 01:05:40;;;;;;;3.23;2.60;;;0.70;99.90;;;;;;2103108;27;20263;-67
2023/11/23 01:06:41;;;;;;;3.43;2.97;;;0.80;99.90;;;;;;2088632;28;20231;-67
2023/11/23 01:07:42;;;;;;;4.13;3.05;;;0.90;99.90;;;;;;2083702;28;20233;-67
2023/11/23 01:08:43;;;;;;;3.83;2.70;;;0.90;99.90;;;;;;2084989;28;20238;-67
2023/11/23 01:09:44;;;;;;;3.27;2.83;;;0.90;99.90;;;;;;2096156;28;20744;-67
2023/11/23 01:10:44;;;;;;;3.93;3.00;;;0.90;99.90;;;;;;2092324;28;20221;-67
2023/11/23 01:11:45;;;;;;;4.00;2.90;;;0.90;99.90;;;;;;2081137;28;20225;-67
2023/11/23 01:12:46;;;;;;;3.27;2.80;;;0.80;99.90;;;;;;2078124;28;20630;-67
2023/11/23 01:13:47;;;;;;;4.30;3.27;;;0.80;99.90;;;;;;2088485;28;20708;-67
2023/11/23 01:14:47;;;;;;;3.87;3.30;;;0.80;99.90;;;;;;2091875;28;20221;-67
2023/11/23 01:15:48;;;;;;;4.40;3.37;;;0.90;99.90;;;;;;2092185;28;20691;-67
2023/11/23 01:16:49;;;;;;;3.00;2.67;;;0.80;99.90;;;;;;2085661;28;20223;-67
2023/11/23 01:17:49;;;;;;;4.67;3.03;;;0.90;99.90;;;;;;2082731;28;20224;-67
2023/11/23 01:18:50;;;;;;;3.43;3.03;;;0.90;99.90;;;;;;2088824;28;20608;-67
2023/11/23 01:19:51;;;;;;;4.13;2.50;;;0.90;99.90;;;;;;2090508;28;20238;-67
2023/11/23 01:20:51;;;;;;;3.10;2.57;;;0.90;99.90;;;;;;2087572;28;20228;-67
2023/11/23 01:21:52;;;;;;;3.37;2.77;;;0.90;99.90;;;;;;2084165;28;20226;-67
2023/11/23 01:22:53;;;;;;;3.43;2.77;;;0.90;99.90;;;;;;2087417;28;20202;-67
2023/11/23 01:23:53;;;;;;;3.50;2.80;;;0.80;99.90;;;;;;2095993;28;20274;-67
2023/11/23 01:24:54;;;;;;;3.00;2.57;;;0.90;99.90;;;;;;2095765;28;20197;-67
2023/11/23 01:25:55;;;;;;;3.87;3.13;;;0.90;99.90;;;;;;2083249;28;20187;-68
2023/11/23 01:26:55;;;;;;;3.97;3.30;;;1.00;99.90;;;;;;2076361;28;20199;-67
2023/11/23 01:27:56;;;;;;;3.90;2.83;;;0.90;99.90;;;;;;2086416;28;20642;-67
2023/11/23 01:28:57;;;;;;;3.90;2.70;;;0.80;99.90;;;;;;2079960;28;20215;-67
2023/11/23 01:29:57;;;;;;;4.27;2.70;;;0.80;99.90;;;;;;2093983;28;20198;-67
2023/11/23 01:30:58;;;;;;;4.53;3.33;;;0.70;99.90;;;;;;2084316;28;20270;-67
2023/11/23 01:31:59;;;;;;;3.63;2.77;;;0.70;99.90;;;;;;2084018;28;20185;-67
2023/11/23 01:33:00;;;;;;;3.73;3.10;;;0.80;99.90;;;;;;2079828;28;20628;-67
2023/11/23 01:34:00;;;;;;;4.00;3.00;;;0.90;99.90;;;;;;2080333;28;20458;-67
2023/11/23 01:35:04;;;;;;;3.67;3.07;;;0.80;99.90;;;;;;2079966;28;20251;-67
2023/11/23 01:36:05;;;;;;;4.63;3.25;;;0.80;99.90;;;;;;2081021;28;20190;-67
2023/11/23 01:37:06;;;;;;;3.75;2.75;;;0.70;99.90;;;;;;2085873;28;20212;-67
2023/11/23 01:38:07;;;;;;;4.00;3.10;;;0.60;99.90;;;;;;2092787;28;20181;-66
2023/11/23 01:39:07;;;;;;;3.47;2.93;;;0.60;99.90;;;;;;2093129;28;20210;-66
2023/11/23 01:40:10;;;;;;;4.80;3.50;;;0.60;99.90;;;;;;2086031;28;20567;-67
2023/11/23 01:41:11;;;;;;;4.68;3.33;;;0.50;99.90;;;;;;2083872;28;20453;-67
2023/11/23 01:42:12;;;;;;;4.67;3.43;;;0.60;99.90;;;;;;2081098;28;20239;-67
2023/11/23 01:43:13;;;;;;;3.87;3.20;;;0.70;99.90;;;;;;2094531;28;20719;-66
2023/11/23 01:44:13;;;;;;;7.13;4.07;;;0.70;99.90;;;;;;2087648;28;20261;-66
2023/11/23 01:45:14;;;;;;;5.20;3.43;;;0.60;99.90;;;;;;2084878;28;20228;-67
2023/11/23 01:46:15;;;;;;;3.87;3.10;;;0.60;99.90;;;;;;2086832;28;20233;-66
2023/11/23 01:47:16;;;;;;;4.30;3.33;;;0.50;99.90;;;;;;2086788;28;20253;-67
2023/11/23 01:48:19;;;;;;;4.27;3.13;;;0.50;99.90;;;;;;2083370;28;20262;-67
2023/11/23 01:49:21;;;;;;;4.28;3.25;;;0.50;99.90;;;;;;2078032;28;20300;-67
2023/11/23 01:50:23;;;;;;;5.30;3.65;;;0.50;99.90;;;;;;2070528;28;20266;-67
2023/11/23 01:51:24;;;;;;;4.03;3.20;;;0.50;99.90;;;;;;2067927;28;20231;-66
2023/11/23 01:52:25;;;;;;;4.90;3.58;;;0.50;99.90;;;;;;2071442;28;20289;-66
2023/11/23 01:53:26;;;;;;;4.10;3.00;;;0.50;99.90;;;;;;2082997;28;20244;-67
2023/11/23 01:54:28;;;;;;;4.40;3.33;;;0.50;99.90;;;;;;2095921;28;20312;-67
2023/11/23 01:55:29;;;;;;;4.13;3.03;;;0.50;99.90;;;;;;2093386;28;20706;-68
2023/11/23 01:56:30;;;;;;;4.47;3.33;;;0.40;99.90;;;;;;2083090;28;20228;-67
2023/11/23 01:57:36;;;;;;;4.00;3.50;;;0.40;99.90;;;;;;2083895;28;20221;-68
2023/11/23 01:58:37;;;;;;;4.75;3.35;;;0.40;99.90;;;;;;2092930;28;20225;-67
2023/11/23 01:59:37;;;;;;;4.50;3.10;;;0.50;99.90;;;;;;2085367;28;20220;-67
2023/11/23 02:00:38;;;;;;;5.47;3.20;;;0.50;99.90;;;;;;2079243;28;20252;-67
2023/11/23 02:01:39;;;;;;;4.33;3.23;;;0.50;99.90;;;;;;2077550;28;20235;-67
2023/11/23 02:02:41;;;;;;;5.67;3.20;;;0.60;99.90;;;;;;2086348;28;20236;-67
2023/11/23 02:03:42;;;;;;;3.95;2.90;;;0.60;99.90;;;;;;2083085;28;20242;-67
2023/11/23 02:04:43;;;;;;;3.83;3.00;;;0.60;99.90;;;;;;2080327;28;20744;-67
2023/11/23 02:05:44;;;;;;;3.90;3.27;;;0.60;99.90;;;;;;2078245;28;20233;-67
2023/11/23 02:06:45;;;;;;;5.25;3.55;;;0.70;99.90;;;;;;2081868;28;20364;-67
2023/11/23 02:07:46;;;;;;;8.00;4.10;;;0.70;99.90;;;;;;2087413;28;20280;-66
2023/11/23 02:08:48;;;;;;;4.53;3.20;;;0.80;99.90;;;;;;2072184;28;20264;-67
2023/11/23 02:09:49;;;;;;;4.82;3.50;;;0.90;99.90;;;;;;2086643;28;20632;-66
2023/11/23 02:10:50;;;;;;;4.93;3.60;;;0.80;99.90;;;;;;2078511;28;20270;-66
2023/11/23 02:11:51;;;;;;;4.20;3.22;;;0.80;99.90;;;;;;2085504;28;20242;-66
2023/11/23 02:12:52;;;;;;;5.13;3.50;;;0.80;99.90;;;;;;2082450;28;20227;-67
2023/11/23 02:13:54;;;;;;;4.35;3.42;;;0.80;99.90;;;;;;2077237;28;20231;-67
2023/11/23 02:14:55;;;;;;;4.22;3.35;;;0.70;99.90;;;;;;2084374;28;20192;-67
2023/11/23 02:15:56;;;;;;;6.22;3.60;;;0.70;99.90;;;;;;2084974;28;20648;-67
2023/11/23 02:16:57;;;;;;;4.75;3.65;;;0.60;99.90;;;;;;2092808;28;20387;-67
2023/11/23 02:18:08;;;;;;;5.73;4.10;;;0.70;99.90;;;;;;2088925;28;20193;-67
2023/11/23 02:19:09;;;;;;;5.47;4.00;;;0.70;99.90;;;;;;2094151;28;20209;-66
2023/11/23 02:20:11;;;;;;;4.93;3.60;;;0.60;99.90;;;;;;2088225;28;20232;-67
2023/11/23 02:21:11;;;;;;;4.68;3.25;;;0.60;99.90;;;;;;2078898;28;20190;-68
2023/11/23 02:22:13;;;;;;;4.57;3.10;;;0.60;99.90;;;;;;2078996;28;20238;-67
2023/11/23 02:23:13;;;;;;;5.25;3.30;;;0.60;99.90;;;;;;2084775;28;20307;-68
2023/11/23 02:24:14;;;;;;;4.67;3.30;;;0.60;99.90;;;;;;2083394;28;20231;-67
2023/11/23 02:25:15;;;;;;;6.07;3.60;;;0.60;99.90;;;;;;2090432;28;20234;-67
2023/11/23 02:26:16;;;;;;;4.90;3.27;;;0.60;99.90;;;;;;2090731;28;20233;-67
2023/11/23 02:27:17;;;;;;;4.15;3.33;;;0.60;99.90;;;;;;2077662;28;20234;-67
2023/11/23 02:28:17;;;;;;;4.40;3.30;;;0.60;99.90;;;;;;2070296;28;20230;-67
2023/11/23 02:29:19;;;;;;;5.22;3.55;;;0.50;99.90;;;;;;2086802;28;20229;-67
2023/11/23 02:30:20;;;;;;;4.00;3.13;;;0.50;99.90;;;;;;2085799;28;20234;-68
2023/11/23 02:31:20;;;;;;;4.70;3.80;;;0.50;99.90;;;;;;2085195;28;20615;-67
2023/11/23 02:32:22;;;;;;;4.43;3.30;;;0.50;99.90;;;;;;2074400;28;20467;-67
2023/11/23 02:33:22;;;;;;;5.18;3.90;;;0.60;99.90;;;;;;2082006;28;20676;-67
2023/11/23 02:34:23;;;;;;;5.17;3.37;;;0.70;99.90;;;;;;2081582;28;20247;-67
2023/11/23 02:35:24;;;;;;;4.70;3.60;;;0.70;99.90;;;;;;2074195;28;20291;-67
2023/11/23 02:36:24;;;;;;;4.57;3.50;;;0.70;99.90;;;;;;2084667;28;20237;-67
2023/11/23 02:37:25;;;;;;;4.97;3.67;;;0.70;99.90;;;;;;2088856;28;20814;-67
2023/11/23 02:38:26;;;;;;;5.27;4.03;;;0.60;99.90;;;;;;2090281;28;20242;-68
2023/11/23 02:39:27;;;;;;;4.70;3.40;;;0.50;99.90;;;;;;2085126;28;20240;-67
2023/11/23 02:40:28;;;;;;;5.32;3.90;;;0.40;99.90;;;;;;2086868;28;20379;-67
2023/11/23 02:41:29;;;;;;;5.47;4.13;;;0.40;99.90;;;;;;2086553;28;20227;-68
2023/11/23 02:42:30;;;;;;;3.63;3.05;;;0.50;99.90;;;;;;2092459;28;20297;-68
2023/11/23 02:43:31;;;;;;;4.57;3.85;;;0.50;99.90;;;;;;2078661;28;20716;-68
2023/11/23 02:44:32;;;;;;;4.43;3.30;;;0.50;99.90;;;;;;2076204;28;20233;-67
2023/11/23 02:45:32;;;;;;;4.70;3.50;;;0.50;99.90;;;;;;2085864;28;20278;-68
2023/11/23 02:46:33;;;;;;;4.87;3.03;;;0.50;99.90;;;;;;2094073;28;20220;-67
2023/11/23 02:47:34;;;;;;;4.50;3.30;;;0.40;99.90;;;;;;2085064;28;20367;-67
2023/11/23 02:48:35;;;;;;;4.53;3.42;;;0.40;99.90;;;;;;2087135;28;20232;-67
2023/11/23 02:49:37;;;;;;;6.10;4.13;;;0.40;99.90;;;;;;2091249;28;20636;-67
2023/11/23 02:50:38;;;;;;;5.63;3.70;;;0.30;99.90;;;;;;2077284;28;20221;-67
2023/11/23 02:51:38;;;;;;;5.03;3.83;;;0.30;99.90;;;;;;2069877;28;20221;-67
2023/11/23 02:52:39;;;;;;;5.53;3.80;;;0.20;99.90;;;;;;2074901;28;20320;-67
2023/11/23 02:53:43;;;;;;;4.27;3.53;;;0.20;99.90;;;;;;2074667;28;20233;-67
2023/11/23 02:54:44;;;;;;;4.85;3.38;;;0.20;99.90;;;;;;2081393;28;20255;-67
2023/11/23 02:55:44;;;;;;;5.50;3.93;;;0.10;99.90;;;;;;2079061;28;20229;-67
2023/11/23 02:56:45;;;;;;;4.40;3.47;;;0.10;99.90;;;;;;2085219;28;20886;-67
2023/11/23 02:57:46;;;;;;;4.15;3.17;;;0.00;99.90;;;;;;2085456;28;20308;-67
2023/11/23 02:58:47;;;;;;;4.63;3.07;;;0.00;99.90;;;;;;2094700;28;20222;-67
2023/11/23 02:59:51;;;;;;;4.10;3.00;;;0.00;99.90;;;;;;2090038;28;20302;-67
2023/11/23 03:00:51;;;;;;;4.70;3.22;;;-0.10;99.90;;;;;;2080860;28;20307;-67
2023/11/23 03:01:52;;;;;;;4.13;2.90;;;-0.10;99.90;;;;;;2081574;28;20598;-68
2023/11/23 03:02:54;;;;;;;4.83;3.33;;;-0.10;99.90;;;;;;2077109;28;20750;-68
2023/11/23 03:03:55;;;;;;;4.53;3.42;;;0.00;99.90;;;;;;2088096;28;20689;-68
2023/11/23 03:04:56;;;;;;;4.65;3.50;;;0.00;99.90;;;;;;2077156;28;20197;-68
2023/11/23 03:06:00;;;;;;;5.43;4.10;;;0.00;99.90;;;;;;2078337;28;20189;-67
2023/11/23 03:07:01;;;;;;;5.75;3.25;;;0.00;99.90;;;;;;2073941;28;20572;-67
2023/11/23 03:08:02;;;;;;;4.53;3.10;;;0.10;99.90;;;;;;2086035;28;20244;-68
2023/11/23 03:09:03;;;;;;;5.18;3.70;;;0.10;99.90;;;;;;2082563;28;20208;-68
2023/11/23 03:10:05;;;;;;;4.97;3.70;;;0.10;99.90;;;;;;2083028;28;20678;-68
2023/11/23 03:11:06;;;;;;;4.00;3.20;;;0.20;99.90;;;;;;2085873;28;20433;-67
2023/11/23 03:12:07;;;;;;;4.87;3.23;;;0.20;99.90;;;;;;2078790;28;20185;-67
2023/11/23 03:13:08;;;;;;;4.88;3.20;;;0.10;99.90;;;;;;2076098;28;20200;-68
2023/11/23 03:14:08;;;;;;;4.63;3.37;;;0.10;99.90;;;;;;2083840;28;20219;-68
2023/11/23 03:15:10;;;;;;;3.50;2.57;;;0.10;99.90;;;;;;2085972;28;20239;-67
2023/11/23 03:16:12;;;;;;;4.82;3.35;;;0.10;99.90;;;;;;2078189;28;20177;-67
2023/11/23 03:17:12;;;;;;;4.80;3.40;;;0.10;99.90;;;;;;2069845;28;20238;-68
2023/11/23 03:18:13;;;;;;;4.50;3.37;;;0.10;99.90;;;;;;2078037;28;20230;-68
2023/11/23 03:19:14;;;;;;;5.20;3.27;;;-0.10;99.90;;;;;;2075554;28;20240;-68
2023/11/23 03:20:16;;;;;;;4.43;2.55;;;-0.10;99.90;;;;;;2076233;28;20277;-64
2023/11/23 03:21:16;;;;;;;4.22;2.92;;;-0.10;99.90;;;;;;2087584;28;20229;-67
2023/11/23 03:22:17;;;;;;;5.00;2.93;;;-0.10;99.90;;;;;;2094235;28;20231;-67
2023/11/23 03:23:18;;;;;;;3.60;2.83;;;-0.20;99.90;;;;;;2089750;28;20248;-66
2023/11/23 03:24:18;;;;;;;4.60;3.00;;;-0.20;99.90;;;;;;2085883;28;20225;-67
2023/11/23 03:25:19;;;;;;;4.33;2.93;;;-0.30;99.90;;;;;;2093536;28;20280;-66
2023/11/23 03:26:20;;;;;;;4.13;2.93;;;-0.20;99.90;;;;;;2092346;28;20318;-67
2023/11/23 03:27:21;;;;;;;3.30;2.70;;;-0.10;99.90;;;;;;2081765;28;20270;-69
2023/11/23 03:28:22;;;;;;;5.35;3.25;;;-0.10;99.90;;;;;;2088233;28;20310;-67
2023/11/23 03:29:22;;;;;;;4.77;3.30;;;-0.10;99.90;;;;;;2089839;28;20285;-67
2023/11/23 03:30:23;;;;;;;4.07;3.27;;;-0.10;99.90;;;;;;2082331;28;20378;-68
2023/11/23 03:31:24;;;;;;;5.07;3.07;;;-0.10;99.90;;;;;;2083698;28;20706;-68
2023/11/23 03:32:29;;;;;;;3.70;2.40;;;-0.10;99.90;;;;;;2083773;28;20272;-68
2023/11/23 03:33:30;;;;;;;4.22;3.10;;;-0.20;99.90;;;;;;2080476;28;20295;-68
2023/11/23 03:34:31;;;;;;;3.77;2.60;;;-0.30;99.90;;;;;;2083419;28;20434;-68
2023/11/23 03:35:32;;;;;;;5.00;3.30;;;-0.40;99.90;;;;;;2085372;28;20220;-68
2023/11/23 03:36:32;;;;;;;3.93;3.03;;;-0.40;99.90;;;;;;2086194;28;20302;-68
2023/11/23 03:37:33;;;;;;;4.57;3.57;;;-0.40;99.90;;;;;;2070478;28;20218;-68
2023/11/23 03:38:34;;;;;;;3.60;2.47;;;-0.40;99.90;;;;;;2073925;28;20229;-67
2023/11/23 03:39:34;;;;;;;4.70;3.10;;;-0.50;99.90;;;;;;2088785;28;20223;-68
2023/11/23 03:40:37;;;;;;;4.23;3.13;;;-0.60;99.90;;;;;;2087193;28;20237;-70
2023/11/23 03:41:38;;;;;;;5.10;3.33;;;-0.50;99.90;;;;;;2090983;28;20219;-68
2023/11/23 03:42:39;;;;;;;4.43;3.10;;;-0.50;99.90;;;;;;2072068;28;20229;-68
2023/11/23 03:43:39;;;;;;;5.22;3.15;;;-0.40;99.90;;;;;;2077655;28;20236;-68
2023/11/23 03:44:40;;;;;;;5.63;3.67;;;-0.40;99.90;;;;;;2084498;28;20256;-67
2023/11/23 03:45:41;;;;;;;6.13;3.20;;;-0.50;99.90;;;;;;2075846;28;20255;-68
2023/11/23 03:46:41;;;;;;;5.57;3.47;;;-0.50;99.90;;;;;;2077432;28;20638;-68
2023/11/23 03:47:42;;;;;;;4.87;3.50;;;-0.50;99.90;;;;;;2083668;28;20290;-68
2023/11/23 03:48:43;;;;;;;3.63;2.50;;;-0.50;99.90;;;;;;2073923;28;20225;-68
2023/11/23 03:49:43;;;;;;;3.73;2.93;;;-0.60;99.90;;;;;;2077536;28;20849;-68
2023/11/23 03:50:44;;;;;;;4.67;3.43;;;-0.60;99.90;;;;;;2083905;28;20220;-68
2023/11/23 03:51:45;;;;;;;5.07;3.43;;;-0.70;99.90;;;;;;2082141;28;20374;-68
2023/11/23 03:52:46;;;;;;;4.67;3.53;;;-0.60;99.90;;;;;;2087134;28;20229;-68
2023/11/23 03:53:46;;;;;;;5.43;3.73;;;-0.60;99.90;;;;;;2084131;28;20221;-68
2023/11/23 03:54:47;;;;;;;4.47;3.37;;;-0.50;99.90;;;;;;2068474;28;20228;-68
2023/11/23 03:55:48;;;;;;;3.60;2.63;;;-0.50;99.90;;;;;;2077292;28;20691;-68
2023/11/23 03:56:48;;;;;;;5.83;3.43;;;-0.50;99.90;;;;;;2080299;28;20221;-69
2023/11/23 03:57:50;;;;;;;3.80;2.70;;;-0.50;99.90;;;;;;2081664;28;20282;-68
2023/11/23 03:58:50;;;;;;;4.45;3.20;;;-0.50;99.90;;;;;;2088996;28;20308;-68
2023/11/23 03:59:51;;;;;;;4.17;3.13;;;-0.40;99.90;;;;;;2086039;28;20216;-68
2023/11/23 04:00:52;;;;;;;4.10;3.00;;;-0.40;99.90;;;;;;2082019;28;20228;-68
2023/11/23 04:01:52;;;;;;;4.60;3.27;;;-0.40;99.90;;;;;;2080799;28;20693;-68
2023/11/23 04:02:53;;;;;;;3.17;2.40;;;-0.40;99.90;;;;;;2085294;28;20177;-68
2023/11/23 04:03:54;;;;;;;3.88;2.65;;;-0.40;99.90;;;;;;2087405;28;20261;-68
2023/11/23 04:04:55;;;;;;;3.77;2.77;;;-0.40;99.90;;;;;;2076118;28;20714;-68
2023/11/23 04:05:56;;;;;;;3.80;2.57;;;-0.40;99.90;;;;;;2077304;28;20185;-68
2023/11/23 04:06:58;;;;;;;4.20;2.77;;;-0.50;99.90;;;;;;2085694;28;20432;-68
2023/11/23 04:07:58;;;;;;;4.18;2.80;;;-0.50;99.90;;;;;;2086223;28;20235;-68
2023/11/23 04:08:59;;;;;;;3.63;2.57;;;-0.50;99.90;;;;;;2079230;28;20209;-68
2023/11/23 04:10:02;;;;;;;2.90;2.40;;;-0.60;99.90;;;;;;2078108;28;20220;-68
2023/11/23 04:11:05;;;;;;;3.78;2.75;;;-0.50;99.90;;;;;;2078092;28;20196;-68
2023/11/23 04:12:06;;;;;;;3.85;2.65;;;-0.50;99.90;;;;;;2080151;28;20196;-68
2023/11/23 04:13:07;;;;;;;3.05;2.63;;;-0.50;99.90;;;;;;2081893;28;20280;-68
2023/11/23 04:14:08;;;;;;;3.20;2.20;;;-0.50;99.90;;;;;;2078701;28;20216;-68
2023/11/23 04:15:11;;;;;;;3.10;2.30;;;-0.50;99.90;;;;;;2086334;28;20180;-68
2023/11/23 04:16:11;;;;;;;3.47;2.53;;;-0.60;99.90;;;;;;2090601;28;20260;-68
2023/11/23 04:17:13;;;;;;;3.33;2.47;;;-0.60;99.90;;;;;;2083535;28;20773;-68
2023/11/23 04:18:14;;;;;;;3.63;2.72;;;-0.50;99.90;;;;;;2091552;28;20583;-68
2023/11/23 04:19:15;;;;;;;3.42;2.33;;;-0.50;99.90;;;;;;2091799;28;20235;-68
2023/11/23 04:20:16;;;;;;;2.63;2.28;;;-0.40;99.90;;;;;;2091977;28;20234;-68
2023/11/23 04:21:16;;;;;;;3.50;2.40;;;-0.40;99.90;;;;;;2098492;28;20226;-69
2023/11/23 04:22:17;;;;;;;2.50;1.93;;;-0.40;99.90;;;;;;2092489;28;20709;-68
2023/11/23 04:23:18;;;;;;;4.37;2.60;;;-0.50;99.90;;;;;;2083856;28;20324;-68
2023/11/23 04:24:18;;;;;;;3.40;2.73;;;-0.50;99.90;;;;;;2086151;28;20290;-68
2023/11/23 04:25:19;;;;;;;3.13;2.53;;;-0.40;99.90;;;;;;2076668;28;20276;-68
2023/11/23 04:26:20;;;;;;;3.57;2.80;;;-0.40;99.90;;;;;;2082184;28;20725;-68
2023/11/23 04:27:21;;;;;;;3.30;2.27;;;-0.50;99.90;;;;;;2076752;28;20208;-68
2023/11/23 04:28:21;;;;;;;4.70;2.57;;;-0.40;99.90;;;;;;2076360;28;20619;-68
2023/11/23 04:29:22;;;;;;;3.53;2.40;;;-0.40;99.90;;;;;;2076467;28;20290;-68
2023/11/23 04:30:23;;;;;;;2.53;1.90;;;-0.30;99.90;;;;;;2073114;28;20328;-68
2023/11/23 04:31:26;;;;;;;2.67;1.90;;;-0.40;99.90;;;;;;2078140;28;20622;-68
2023/11/23 04:32:27;;;;;;;3.03;2.30;;;-0.60;99.90;;;;;;2080836;28;20220;-68
2023/11/23 04:33:28;;;;;;;2.87;2.40;;;-0.60;99.90;;;;;;2085734;28;20272;-68
2023/11/23 04:34:28;;;;;;;3.73;2.50;;;-0.60;99.90;;;;;;2080301;28;20272;-68
2023/11/23 04:35:29;;;;;;;2.53;1.90;;;-0.50;99.90;;;;;;2083784;28;20235;-68
2023/11/23 04:36:30;;;;;;;3.53;2.43;;;-0.50;99.90;;;;;;2084465;28;20281;-68
2023/11/23 04:37:31;;;;;;;3.07;2.07;;;-0.60;99.90;;;;;;2084454;28;20232;-68
2023/11/23 04:38:32;;;;;;;3.47;2.45;;;-0.60;99.90;;;;;;2082330;28;20768;-68
2023/11/23 04:39:34;;;;;;;2.70;2.17;;;-0.60;99.90;;;;;;2083900;28;20274;-68
2023/11/23 04:40:34;;;;;;;2.92;2.22;;;-0.50;99.90;;;;;;2077367;28;20253;-68
2023/11/23 04:41:36;;;;;;;3.43;2.47;;;-0.50;99.90;;;;;;2081473;28;20716;-68
2023/11/23 04:42:38;;;;;;;2.45;1.80;;;-0.60;99.90;;;;;;2088710;28;20212;-68
2023/11/23 04:43:39;;;;;;;2.45;1.90;;;-0.60;99.90;;;;;;2088308;28;20228;-67
2023/11/23 04:44:40;;;;;;;3.00;2.28;;;-0.60;99.90;;;;;;2086363;28;20298;-68
2023/11/23 04:45:42;;;;;;;4.60;2.63;;;-0.70;99.90;;;;;;2079249;28;20232;-68
2023/11/23 04:46:42;;;;;;;2.80;2.30;;;-0.70;99.90;;;;;;2095235;28;20721;-68
2023/11/23 04:47:43;;;;;;;3.10;2.00;;;-0.70;99.90;;;;;;2088707;28;20228;-68
2023/11/23 04:48:44;;;;;;;3.77;2.73;;;-0.80;99.90;;;;;;2088788;28;20313;-68
2023/11/23 04:49:44;;;;;;;2.90;2.10;;;-0.80;99.90;;;;;;2092506;28;20223;-68
2023/11/23 04:50:45;;;;;;;3.67;2.60;;;-0.80;99.90;;;;;;2086006;28;20228;-68
2023/11/23 04:51:46;;;;;;;12.00;8.83;;;-0.80;99.90;;;;;;2095874;28;20229;-68
2023/11/23 04:52:47;;;;;;;9.53;7.47;;;-0.80;99.90;;;;;;2091209;28;20220;-68
2023/11/23 04:53:47;;;;;;;10.77;7.53;;;-0.90;99.90;;;;;;2093115;28;20238;-68
2023/11/23 04:54:48;;;;;;;6.27;5.10;;;-0.80;99.90;;;;;;2088634;28;20246;-68
2023/11/23 04:55:49;;;;;;;6.13;4.07;;;-0.70;99.90;;;;;;2092185;28;20226;-68
2023/11/23 04:56:51;;;;;;;4.30;2.87;;;-0.80;99.90;;;;;;2072773;28;20726;-68
2023/11/23 04:57:51;;;;;;;3.38;2.55;;;-0.90;99.90;;;;;;2079807;28;20322;-68
2023/11/23 04:58:52;;;;;;;3.43;2.50;;;-0.80;99.90;;;;;;2076312;28;20225;-69
2023/11/23 04:59:53;;;;;;;2.53;1.87;;;-0.80;99.90;;;;;;2076388;28;20181;-68
2023/11/23 05:00:53;;;;;;;2.80;2.20;;;-1.00;99.90;;;;;;2084386;28;20218;-68
2023/11/23 05:01:54;;;;;;;3.63;2.50;;;-1.00;99.90;;;;;;2102265;28;20226;-68
2023/11/23 05:02:55;;;;;;;3.17;1.80;;;-1.00;99.90;;;;;;2101546;28;20240;-68
2023/11/23 05:03:56;;;;;;;3.47;2.20;;;-1.00;99.90;;;;;;2090942;28;20421;-68
2023/11/23 05:04:56;;;;;;;2.00;1.73;;;-1.10;99.90;;;;;;2091728;28;20671;-68
2023/11/23 05:05:57;;;;;;;3.60;2.03;;;-1.10;99.90;;;;;;2090844;28;20184;-68
2023/11/23 05:06:58;;;;;;;2.37;2.00;;;-1.00;99.90;;;;;;2087161;28;20203;-68
2023/11/23 05:07:59;;;;;;;3.47;2.10;;;-1.00;99.90;;;;;;2083796;28;20313;-68
2023/11/23 05:08:59;;;;;;;2.63;1.97;;;-1.00;99.90;;;;;;2079062;28;20205;-68
2023/11/23 05:10:01;;;;;;;2.80;1.87;;;-1.00;99.90;;;;;;2075845;28;20185;-68
2023/11/23 05:11:03;;;;;;;2.22;1.70;;;-1.10;99.90;;;;;;2090969;28;20231;-68
2023/11/23 05:12:06;;;;;;;3.30;2.00;;;-1.20;99.90;;;;;;2082422;28;20185;-68
2023/11/23 05:13:07;;;;;;;2.45;1.90;;;-1.10;99.90;;;;;;2083430;28;20185;-68
2023/11/23 05:14:08;;;;;;;2.23;1.93;;;-1.20;99.90;;;;;;2083359;28;20209;-68
2023/11/23 05:15:09;;;;;;;2.40;1.90;;;-1.20;99.90;;;;;;2083674;28;20195;-68
2023/11/23 05:16:10;;;;;;;3.03;2.17;;;-1.20;99.90;;;;;;2081629;28;20762;-68
2023/11/23 05:17:10;;;;;;;2.97;2.10;;;-1.20;99.90;;;;;;2082953;28;20300;-69
2023/11/23 05:18:12;;;;;;;3.20;2.13;;;-1.20;99.90;;;;;;2082950;28;20195;-68
2023/11/23 05:19:13;;;;;;;5.10;2.20;;;-1.10;99.90;;;;;;2074174;28;20264;-68
2023/11/23 05:20:14;;;;;;;3.33;2.40;;;-1.10;99.90;;;;;;2076691;28;20220;-68